Fernie, Canada
Current Conditions -  °F | °C
As of 12:00 PM on Thursday 23 Oct 2014 (Local Time) from CYXC Reporting Station
Broken Clouds Broken Clouds  
Wind Chill: 52°   Ceiling: 5000
Heat Index: 52°   Visibility: 25mi
Dew Point: 43°   Wind: 14mph
Humidity: 71%   Direction: 200°SSW
Pressure: 29.73"   Gusts: 20mph
Location:  49.51°N, 115.06°W
Report Text: CYXC 231800Z 20012G17KT 25SM BKN050 BKN100 11/06 A2973 RMK SC6AC1 CVCTV CLD EMBD VIS S 5 PRESRR SLP077 DENSITY ALT 3500FT
Loading
Personal Weather Stations






























Interactive Weather Map New forecast layout! Learn more

10-Day Weather Forecast

Advertisements
Track Severe Weather on mobile